createdAt,value
2019-05-15T00:01:51.224Z,1.80
2019-05-15T00:04:18.652Z,1.60
2019-05-15T00:09:28.481Z,1.50
2019-05-15T00:11:54.661Z,1.37
2019-05-15T00:14:21.643Z,1.43
2019-05-15T00:16:48.382Z,1.30
2019-05-15T00:19:18.609Z,1.63
2019-05-15T00:21:44.807Z,1.50
2019-05-15T00:24:13.098Z,1.53
2019-05-15T00:26:41.136Z,1.40
2019-05-15T00:29:15.115Z,1.43
2019-05-15T00:31:38.777Z,1.40
2019-05-15T00:34:12.458Z,1.53
2019-05-15T00:36:34.946Z,1.70
2019-05-15T00:39:01.653Z,1.93
2019-05-15T00:41:30.183Z,1.60
2019-05-15T00:43:58.524Z,1.80
2019-05-15T00:46:25.266Z,1.40
2019-05-15T00:48:52.051Z,1.70
2019-05-15T00:51:19.535Z,1.87
2019-05-15T00:53:48.307Z,2.10
2019-05-15T00:56:15.218Z,2.53
2019-05-15T00:58:42.129Z,2.57
2019-05-15T01:01:08.931Z,1.90
2019-05-15T01:03:35.690Z,1.83
2019-05-15T01:06:02.396Z,2.27
2019-05-15T01:08:29.243Z,2.00
2019-05-15T01:10:58.074Z,1.77
2019-05-15T01:13:24.937Z,1.63
2019-05-15T01:15:52.534Z,1.80
2019-05-15T01:18:19.470Z,2.13
2019-05-15T01:20:46.152Z,2.03
2019-05-15T01:23:12.752Z,2.00
2019-05-15T01:25:39.371Z,1.57
2019-05-15T01:28:06.031Z,2.03
2019-05-15T01:30:32.622Z,2.00
2019-05-15T01:32:59.304Z,2.27
2019-05-15T01:35:28.573Z,2.30
2019-05-15T01:37:55.789Z,2.87
2019-05-15T01:40:22.492Z,2.43
2019-05-15T01:42:49.984Z,2.23
2019-05-15T01:45:18.928Z,2.77
2019-05-15T01:47:47.892Z,3.83
2019-05-15T01:50:14.772Z,3.07
2019-05-15T01:52:44.011Z,2.47
2019-05-15T01:55:11.048Z,2.67
2019-05-15T01:57:40.436Z,3.93
2019-05-15T02:00:08.705Z,2.13
2019-05-15T02:02:35.672Z,2.40
2019-05-15T02:05:02.708Z,2.30
2019-05-15T02:07:30.398Z,2.43
2019-05-15T02:09:58.258Z,2.60
2019-05-15T02:12:25.056Z,2.03
2019-05-15T02:14:51.872Z,2.87
2019-05-15T02:17:19.034Z,2.13
2019-05-15T02:19:45.858Z,2.50
2019-05-15T02:22:14.052Z,2.40
2019-05-15T02:24:40.762Z,2.00
2019-05-15T02:27:10.314Z,2.77
2019-05-15T02:29:37.803Z,2.70
2019-05-15T02:32:04.588Z,2.13
2019-05-15T02:34:31.304Z,2.43
2019-05-15T02:37:00.137Z,2.50
2019-05-15T02:39:28.973Z,2.43
2019-05-15T02:41:59.265Z,3.07
2019-05-15T02:44:24.911Z,2.43
2019-05-15T02:46:51.623Z,3.63
2019-05-15T02:49:19.171Z,2.43
2019-05-15T02:51:49.080Z,3.00
2019-05-15T02:54:19.284Z,2.53
2019-05-15T02:56:44.671Z,2.80
2019-05-15T02:59:11.344Z,3.13
2019-05-15T03:01:40.374Z,4.83
2019-05-15T03:04:09.253Z,3.00
2019-05-15T03:06:38.637Z,3.27
2019-05-15T03:09:04.906Z,3.00
2019-05-15T03:11:31.737Z,2.83
2019-05-15T03:13:59.265Z,2.93
2019-05-15T03:16:30.298Z,2.60
2019-05-15T03:18:59.584Z,2.90
2019-05-15T03:21:25.179Z,3.13
2019-05-15T03:23:51.822Z,2.53
2019-05-15T03:26:20.017Z,4.07
2019-05-15T03:28:49.635Z,2.87
2019-05-15T03:31:35.162Z,3.13
2019-05-15T03:33:46.851Z,2.97
2019-05-15T03:36:14.131Z,3.20
2019-05-15T03:38:41.800Z,2.97
2019-05-15T03:41:10.180Z,3.33
2019-05-15T03:43:39.346Z,2.93
2019-05-15T03:46:08.771Z,3.10
2019-05-15T03:48:34.569Z,2.77
2019-05-15T03:51:01.543Z,11.90
2019-05-15T03:53:29.831Z,3.73
2019-05-15T03:55:58.931Z,3.53
2019-05-15T03:58:28.474Z,3.70
2019-05-15T04:00:54.778Z,3.67
2019-05-15T04:03:21.434Z,3.60
2019-05-15T04:05:49.431Z,3.97
2019-05-15T04:08:19.154Z,3.93
2019-05-15T04:10:45.032Z,4.33
2019-05-15T04:13:12.774Z,3.77
2019-05-15T04:15:40.561Z,2.70
2019-05-15T04:18:09.967Z,3.17
2019-05-15T04:20:39.973Z,2.80
2019-05-15T04:23:05.596Z,2.77
2019-05-15T04:25:33.038Z,3.03
2019-05-15T04:28:00.318Z,3.10
2019-05-15T04:30:30.499Z,3.40
2019-05-15T04:32:59.256Z,3.67
2019-05-15T04:35:25.103Z,3.70
2019-05-15T04:37:51.776Z,4.67
2019-05-15T04:40:19.406Z,4.63
2019-05-15T04:42:49.610Z,3.03
2019-05-15T04:45:19.478Z,3.17
2019-05-15T04:47:49.628Z,3.05
2019-05-15T04:50:15.132Z,3.00
2019-05-15T04:52:43.434Z,2.30
2019-05-15T04:55:10.963Z,3.57
2019-05-15T04:57:39.973Z,2.00
2019-05-15T05:00:09.524Z,2.57
2019-05-15T05:02:39.498Z,2.87
2019-05-15T05:05:10.879Z,1.90
2019-05-15T05:07:39.006Z,2.00
2019-05-15T05:10:09.683Z,2.43
2019-05-15T05:12:40.983Z,1.50
2019-05-15T05:15:04.992Z,2.07
2019-05-15T05:17:31.682Z,2.70
2019-05-15T05:19:58.429Z,2.20
2019-05-15T05:22:28.095Z,2.40
2019-05-15T05:24:54.328Z,2.17
2019-05-15T05:27:22.931Z,2.17
2019-05-15T05:29:49.759Z,2.57
2019-05-15T05:32:30.488Z,1.80
2019-05-15T05:34:44.956Z,2.20
2019-05-15T05:37:11.618Z,3.00
2019-05-15T05:39:39.516Z,2.07
2019-05-15T05:42:07.939Z,2.97
2019-05-15T05:44:34.963Z,2.97
2019-05-15T05:47:01.628Z,3.27
2019-05-15T05:49:28.881Z,2.30
2019-05-15T05:51:55.654Z,2.33
2019-05-15T05:54:22.288Z,2.97
2019-05-15T05:56:49.011Z,1.70
2019-05-15T05:59:18.441Z,2.27
2019-05-15T06:01:44.514Z,1.73
2019-05-15T06:04:11.190Z,2.23
2019-05-15T06:06:38.548Z,2.70
2019-05-15T06:09:09.239Z,1.87
2019-05-15T06:11:37.957Z,2.43
2019-05-15T06:14:04.700Z,1.90
2019-05-15T06:16:31.440Z,1.70
2019-05-15T06:18:58.772Z,1.77
2019-05-15T06:21:25.492Z,2.77
2019-05-15T06:23:55.448Z,1.93
2019-05-15T06:26:20.991Z,1.83
2019-05-15T06:28:49.032Z,1.70
2019-05-15T06:31:18.962Z,1.50
2019-05-15T06:33:46.041Z,1.60
2019-05-15T06:36:15.176Z,1.70
2019-05-15T06:38:41.865Z,1.47
2019-05-15T06:41:08.931Z,1.57
2019-05-15T06:43:35.546Z,1.50
2019-05-15T06:46:02.758Z,2.40
2019-05-15T06:48:30.551Z,1.57
2019-05-15T06:50:57.957Z,1.03
2019-05-15T06:53:24.892Z,1.10
2019-05-15T06:55:51.557Z,1.20
2019-05-15T06:58:19.215Z,1.53
2019-05-15T07:00:48.863Z,1.47
2019-05-15T07:03:24.039Z,1.73
2019-05-15T07:05:44.328Z,1.13
2019-05-15T07:08:11.036Z,0.90
2019-05-15T07:10:37.946Z,1.00
2019-05-15T07:13:04.695Z,1.00
2019-05-15T07:15:32.483Z,1.00
2019-05-15T07:17:59.514Z,1.23
2019-05-15T07:20:28.526Z,0.97
2019-05-15T07:22:55.377Z,1.10
2019-05-15T07:25:22.166Z,1.30
2019-05-15T07:27:48.919Z,1.27
2019-05-15T07:30:18.606Z,1.20
2019-05-15T07:32:44.796Z,1.30
2019-05-15T07:35:13.079Z,1.37
2019-05-15T07:37:39.713Z,1.10
2019-05-15T07:40:08.386Z,1.27
2019-05-15T07:42:38.576Z,1.30
2019-05-15T07:45:08.249Z,1.30
2019-05-15T07:47:34.883Z,1.10
2019-05-15T07:50:01.966Z,1.20
2019-05-15T07:52:28.937Z,1.40
2019-05-15T07:54:57.985Z,1.20
2019-05-15T07:57:24.309Z,0.80
2019-05-15T07:59:52.288Z,2.65
2019-05-15T08:02:19.347Z,1.00
2019-05-15T08:04:48.143Z,1.22
2019-05-15T08:07:14.638Z,1.40
2019-05-15T08:09:41.281Z,1.20
2019-05-15T08:12:08.362Z,1.22
2019-05-15T08:14:35.398Z,1.75
2019-05-15T08:17:02.181Z,1.50
2019-05-15T08:19:29.077Z,1.45
2019-05-15T08:21:58.119Z,1.25
2019-05-15T08:24:24.597Z,1.40
2019-05-15T08:26:52.419Z,1.37
2019-05-15T08:29:21.588Z,1.37
2019-05-15T08:31:48.567Z,1.03
2019-05-15T08:34:16.471Z,2.75
2019-05-15T08:36:48.193Z,0.90
2019-05-15T08:39:15.251Z,2.08
2019-05-15T08:41:42.207Z,1.12
2019-05-15T08:44:08.940Z,1.20
2019-05-15T08:46:35.691Z,1.10
2019-05-15T08:49:02.520Z,1.15
2019-05-15T08:51:29.472Z,1.35
2019-05-15T08:53:57.999Z,1.20
2019-05-15T08:56:24.724Z,1.50
2019-05-15T08:58:51.732Z,1.10
2019-05-15T09:01:18.602Z,1.30
2019-05-15T09:03:45.649Z,1.47
2019-05-15T09:06:12.277Z,1.32
2019-05-15T09:08:39.452Z,1.10
2019-05-15T09:11:08.764Z,1.10
2019-05-15T09:13:34.756Z,1.52
2019-05-15T09:16:01.451Z,1.72
2019-05-15T09:18:28.450Z,1.05
2019-05-15T09:20:55.105Z,1.10
2019-05-15T09:23:22.594Z,1.07
2019-05-15T09:25:49.842Z,1.17
2019-05-15T09:28:18.909Z,1.10
2019-05-15T09:30:48.102Z,1.15
2019-05-15T09:33:14.559Z,2.08
2019-05-15T09:35:41.240Z,0.85
2019-05-15T09:38:08.732Z,0.80
2019-05-15T09:40:43.267Z,1.10
2019-05-15T09:43:04.281Z,1.65
2019-05-15T09:45:30.920Z,1.30
2019-05-15T09:48:01.382Z,1.35
2019-05-15T09:50:28.610Z,1.15
2019-05-15T09:52:55.443Z,1.47
2019-05-15T09:55:24.589Z,1.00
2019-05-15T09:57:54.841Z,1.40
2019-05-15T10:00:20.369Z,1.45
2019-05-15T10:02:48.623Z,2.75
2019-05-15T10:05:15.680Z,0.80
2019-05-15T10:07:42.411Z,1.00
2019-05-15T10:10:10.279Z,1.10
2019-05-15T10:12:39.204Z,0.95
2019-05-15T10:15:10.932Z,1.00
2019-05-15T10:17:34.930Z,1.27
2019-05-15T10:20:01.888Z,0.80
2019-05-15T10:22:28.693Z,1.37
2019-05-15T10:24:55.327Z,1.12
2019-05-15T10:27:22.130Z,1.70
2019-05-15T10:29:48.732Z,1.37
2019-05-15T10:32:15.778Z,0.88
2019-05-15T10:34:42.435Z,1.10
2019-05-15T10:37:09.102Z,1.45
2019-05-15T10:39:38.300Z,1.10
2019-05-15T10:42:04.688Z,0.98
2019-05-15T10:44:31.393Z,1.00
2019-05-15T10:46:58.555Z,1.50
2019-05-15T10:49:25.277Z,0.93
2019-05-15T10:51:51.853Z,0.90
2019-05-15T10:54:19.172Z,1.00
2019-05-15T10:56:46.448Z,1.05
2019-05-15T10:59:13.223Z,1.12
2019-05-15T11:01:40.007Z,2.95
2019-05-15T11:04:09.219Z,0.88
2019-05-15T11:06:35.647Z,1.32
2019-05-15T11:09:03.887Z,1.25
2019-05-15T11:11:30.506Z,1.02
2019-05-15T11:14:00.173Z,0.82
2019-05-15T11:16:28.253Z,0.80
2019-05-15T11:18:54.480Z,1.10
2019-05-15T11:21:21.228Z,1.37
2019-05-15T11:23:49.418Z,0.98
2019-05-15T11:26:19.361Z,0.80
2019-05-15T11:28:49.457Z,3.00
2019-05-15T11:31:14.590Z,0.80
2019-05-15T11:33:41.362Z,0.78
2019-05-15T11:36:08.218Z,1.05
2019-05-15T11:38:38.290Z,1.00
2019-05-15T11:41:05.548Z,1.00
2019-05-15T11:43:38.261Z,0.80
2019-05-15T11:46:06.088Z,0.80
2019-05-15T11:48:33.094Z,0.80
2019-05-15T11:50:59.971Z,2.17
2019-05-15T11:53:28.464Z,1.03
2019-05-15T11:55:55.187Z,1.55
2019-05-15T11:58:21.909Z,0.70
2019-05-15T12:00:49.313Z,0.70
2019-05-15T12:03:18.909Z,0.82
2019-05-15T12:05:44.682Z,0.80
2019-05-15T12:08:12.662Z,0.60
2019-05-15T12:10:39.302Z,0.70
2019-05-15T12:13:05.974Z,0.72
2019-05-15T12:15:32.717Z,0.70
2019-05-15T12:17:59.319Z,0.80
2019-05-15T12:20:28.375Z,1.35
2019-05-15T12:22:55.545Z,0.50
2019-05-15T12:25:22.159Z,0.53
2019-05-15T12:27:49.304Z,0.75
2019-05-15T12:30:16.246Z,0.70
2019-05-15T12:32:42.828Z,1.22
2019-05-15T12:35:09.672Z,1.00
2019-05-15T12:37:39.922Z,0.95
2019-05-15T12:59:58.119Z,0.70
2019-05-15T13:02:24.325Z,0.78
2019-05-15T13:04:51.046Z,0.60
2019-05-15T13:07:19.878Z,0.80
2019-05-15T13:09:46.208Z,0.78
2019-05-15T13:12:13.253Z,0.90
2019-05-15T13:14:39.968Z,0.80
2019-05-15T13:17:06.653Z,0.85
2019-05-15T13:19:33.244Z,0.68
2019-05-15T13:22:00.012Z,0.85
2019-05-15T13:24:28.429Z,0.80
2019-05-15T13:26:55.244Z,0.85
2019-05-15T13:29:22.128Z,0.93
2019-05-15T13:31:48.981Z,1.35
2019-05-15T13:34:15.831Z,0.70
2019-05-15T13:36:43.079Z,1.00
2019-05-15T13:39:09.698Z,1.10
2019-05-15T13:41:38.427Z,0.60
2019-05-15T13:44:05.244Z,1.65
2019-05-15T13:46:32.995Z,1.22
2019-05-15T13:49:00.032Z,0.80
2019-05-15T13:51:29.066Z,0.90
2019-05-15T13:53:55.457Z,1.02
2019-05-15T13:56:22.352Z,0.75
2019-05-15T13:58:49.013Z,0.85
2019-05-15T14:01:15.569Z,0.82
2019-05-15T14:03:42.271Z,0.93
2019-05-15T14:06:09.643Z,0.90
2019-05-15T14:08:38.323Z,0.80
2019-05-15T14:11:08.617Z,1.12
2019-05-15T14:13:34.992Z,1.40
2019-05-15T14:16:02.094Z,1.72
2019-05-15T14:18:30.703Z,1.20
2019-05-15T14:20:58.380Z,1.32
2019-05-15T14:23:25.550Z,1.40
2019-05-15T14:25:52.439Z,2.22
2019-05-15T14:28:19.159Z,2.72
2019-05-15T14:30:45.940Z,1.77
2019-05-15T14:33:15.093Z,1.52
2019-05-15T14:35:41.901Z,2.08
2019-05-15T14:38:10.333Z,1.70
2019-05-15T14:40:37.532Z,1.52
2019-05-15T14:43:04.449Z,2.45
2019-05-15T14:45:31.031Z,1.60
2019-05-15T14:47:58.265Z,1.45
2019-05-15T14:50:24.895Z,1.50
2019-05-15T14:52:53.979Z,1.00
2019-05-15T14:55:20.572Z,1.30
2019-05-15T14:57:48.704Z,1.27
2019-05-15T15:00:20.021Z,1.57
2019-05-15T15:02:45.710Z,2.42
2019-05-15T15:05:12.485Z,1.50
2019-05-15T15:07:40.449Z,1.37
2019-05-15T15:10:08.074Z,1.25
2019-05-15T15:12:34.963Z,2.25
2019-05-15T15:15:01.569Z,1.45
2019-05-15T15:17:28.884Z,0.88
2019-05-15T15:19:59.948Z,1.42
2019-05-15T15:22:24.297Z,1.37
2019-05-15T15:24:50.974Z,1.80
2019-05-15T15:27:18.164Z,1.60
2019-05-15T15:29:45.152Z,0.90
2019-05-15T15:32:12.243Z,1.62
2019-05-15T15:34:38.940Z,1.00
2019-05-15T15:37:05.518Z,1.15
2019-05-15T15:39:32.194Z,0.80
2019-05-15T15:41:58.856Z,1.42
2019-05-15T15:44:27.920Z,1.17
2019-05-15T15:46:54.422Z,1.00
2019-05-15T15:49:21.120Z,1.10
2019-05-15T15:51:48.751Z,0.82
2019-05-15T15:54:15.596Z,0.60
2019-05-15T15:56:42.360Z,1.02
2019-05-15T15:59:09.048Z,0.82
2019-05-15T16:01:36.122Z,1.02
2019-05-15T16:04:04.496Z,1.37
2019-05-15T16:06:31.161Z,0.75
2019-05-15T16:08:59.573Z,0.70
2019-05-15T16:11:27.957Z,1.42
2019-05-15T16:13:58.570Z,0.90
2019-05-15T16:16:25.349Z,1.07
2019-05-15T16:18:52.033Z,0.80
2019-05-15T16:21:19.316Z,0.70
2019-05-15T16:23:48.069Z,0.70
2019-05-15T16:26:15.011Z,0.90
2019-05-15T16:28:41.805Z,1.00
2019-05-15T16:31:08.687Z,3.20
2019-05-15T16:33:35.332Z,0.88
2019-05-15T16:36:01.957Z,1.20
2019-05-15T16:38:29.012Z,0.68
2019-05-15T16:40:58.279Z,0.70
2019-05-15T16:43:28.352Z,0.70
2019-05-15T16:45:54.529Z,0.70
2019-05-15T16:48:21.174Z,0.70
2019-05-15T16:50:48.718Z,0.80
2019-05-15T16:53:17.834Z,0.57
2019-05-15T16:55:44.377Z,1.03
2019-05-15T16:58:11.112Z,1.47
2019-05-15T17:00:38.409Z,0.90
2019-05-15T17:03:13.780Z,0.50
2019-05-15T17:05:35.264Z,1.10
2019-05-15T17:08:02.115Z,0.70
2019-05-15T17:10:28.908Z,0.70
2019-05-15T17:12:58.155Z,0.60
2019-05-15T17:15:24.335Z,0.90
2019-05-15T17:17:51.150Z,0.95
2019-05-15T17:20:18.214Z,0.60
2019-05-15T17:22:44.938Z,0.60
2019-05-15T17:25:11.785Z,0.60
2019-05-15T17:27:38.763Z,0.80
2019-05-15T17:30:09.347Z,0.60
2019-05-15T17:32:38.557Z,1.20
2019-05-15T17:35:04.880Z,0.50
2019-05-15T17:37:32.139Z,0.50
2019-05-15T17:39:59.061Z,0.70
2019-05-15T17:42:25.748Z,0.77
2019-05-15T17:44:52.832Z,0.60
2019-05-15T17:47:19.543Z,1.10
2019-05-15T17:49:48.144Z,0.80
2019-05-15T17:52:14.933Z,0.57
2019-05-15T17:54:44.481Z,0.60
2019-05-15T17:57:10.780Z,2.10
2019-05-15T17:59:37.918Z,0.40
2019-05-15T18:02:05.064Z,1.90
2019-05-15T18:04:32.056Z,0.77
2019-05-15T18:06:59.235Z,0.63
2019-05-15T18:09:27.920Z,0.50
2019-05-15T18:11:54.619Z,0.60
2019-05-15T18:14:21.504Z,0.67
2019-05-15T18:16:50.930Z,0.50
2019-05-15T18:19:18.759Z,0.73
2019-05-15T18:21:46.753Z,0.80
2019-05-15T18:24:13.736Z,0.57
2019-05-15T18:26:40.451Z,0.75
2019-05-15T18:29:09.054Z,0.70
2019-05-15T18:31:37.957Z,0.73
2019-05-15T18:34:04.591Z,0.63
2019-05-15T18:36:31.235Z,1.80
2019-05-15T18:38:58.885Z,0.60
2019-05-15T18:41:25.852Z,0.70
2019-05-15T18:43:52.569Z,0.60
2019-05-15T18:46:19.261Z,0.63
2019-05-15T18:48:45.927Z,0.60
2019-05-15T18:51:12.564Z,0.50
2019-05-15T18:53:39.508Z,0.60
2019-05-15T18:56:08.765Z,0.60
2019-05-15T18:58:38.000Z,0.77
2019-05-15T19:01:04.490Z,0.60
2019-05-15T19:03:32.435Z,0.60
2019-05-15T19:06:00.687Z,1.33
2019-05-15T19:08:28.235Z,1.07
2019-05-15T19:10:55.073Z,0.90
2019-05-15T19:13:21.931Z,0.53
2019-05-15T19:15:48.895Z,0.53
2019-05-15T19:18:15.649Z,0.40
2019-05-15T19:20:42.450Z,0.90
2019-05-15T19:23:09.104Z,0.60
2019-05-15T19:25:36.107Z,0.53
2019-05-15T19:28:02.874Z,1.80
2019-05-15T19:30:29.806Z,0.50
2019-05-15T19:32:58.524Z,0.60
2019-05-15T19:35:25.282Z,0.80
2019-05-15T19:37:51.971Z,0.90
2019-05-15T19:40:18.894Z,0.60
2019-05-15T19:42:45.941Z,2.00
2019-05-15T19:45:17.433Z,0.70
2019-05-15T19:47:53.916Z,1.13
2019-05-15T19:50:21.402Z,0.73
2019-05-15T19:52:48.361Z,1.77
2019-05-15T19:55:15.012Z,0.77
2019-05-15T19:57:41.969Z,0.93
2019-05-15T20:00:11.417Z,1.00
2019-05-15T20:02:38.445Z,0.93
2019-05-15T20:05:05.336Z,0.50
2019-05-15T20:07:32.385Z,0.70
2019-05-15T20:09:59.446Z,0.90
2019-05-15T20:12:28.117Z,0.70
2019-05-15T20:15:01.070Z,1.23
2019-05-15T20:17:28.040Z,0.93
2019-05-15T20:19:55.109Z,0.90
2019-05-15T20:22:22.085Z,1.10
2019-05-15T20:24:49.160Z,0.80
2019-05-15T20:27:18.793Z,0.77
2019-05-15T20:29:45.866Z,0.77
2019-05-15T20:32:12.482Z,0.80
2019-05-15T20:34:39.257Z,1.50
2019-05-15T20:37:06.153Z,0.50
2019-05-15T20:39:35.605Z,0.60
2019-05-15T20:42:02.213Z,0.73
2019-05-15T20:44:28.837Z,0.60
2019-05-15T20:46:55.469Z,0.63
2019-05-15T20:49:22.621Z,1.13
2019-05-15T20:51:49.327Z,0.40
2019-05-15T20:54:16.484Z,0.67
2019-05-15T20:56:43.473Z,1.13
2019-05-15T20:59:10.175Z,0.53
2019-05-15T21:01:37.758Z,0.83
2019-05-15T21:04:16.921Z,0.50
2019-05-15T21:06:33.381Z,0.67
2019-05-15T21:09:01.156Z,0.60
2019-05-15T21:11:28.501Z,0.50
2019-05-15T21:13:55.213Z,3.00
2019-05-15T21:16:22.241Z,0.50
2019-05-15T21:18:49.033Z,0.57
2019-05-15T21:21:18.861Z,0.80
2019-05-15T21:23:44.935Z,1.57
2019-05-15T21:26:11.572Z,1.37
2019-05-15T21:28:39.080Z,0.67
2019-05-15T21:31:08.624Z,0.60
2019-05-15T21:33:35.179Z,0.67
2019-05-15T21:36:02.059Z,0.73
2019-05-15T21:38:28.685Z,0.40
2019-05-15T21:40:55.253Z,0.83
2019-05-15T21:43:21.958Z,0.60
2019-05-15T21:45:49.111Z,0.50
2019-05-15T21:48:18.258Z,1.30
2019-05-15T21:50:44.818Z,1.13
2019-05-15T21:53:11.625Z,0.63
2019-05-15T21:55:38.819Z,1.63
2019-05-15T21:58:08.539Z,0.63
2019-05-15T22:00:38.537Z,0.60
2019-05-15T22:03:06.586Z,1.33
2019-05-15T22:05:33.283Z,0.60
2019-05-15T22:07:59.975Z,1.00
2019-05-15T22:10:28.809Z,0.70
2019-05-15T22:12:55.699Z,0.80
2019-05-15T22:15:22.356Z,1.40
2019-05-15T22:17:49.777Z,0.90
2019-05-15T22:20:16.797Z,0.70
2019-05-15T22:22:43.580Z,0.77
2019-05-15T22:25:11.491Z,0.80
2019-05-15T22:27:38.477Z,0.83
2019-05-15T22:30:07.830Z,0.83
2019-05-15T22:32:34.395Z,0.70
2019-05-15T22:35:09.321Z,0.80
2019-05-15T22:37:29.688Z,0.60
2019-05-15T22:39:57.985Z,0.70
2019-05-15T22:42:25.325Z,0.53
2019-05-15T22:44:52.256Z,1.97
2019-05-15T22:47:19.970Z,0.50
2019-05-15T22:49:48.531Z,1.20
2019-05-15T22:52:18.323Z,0.93
2019-05-15T22:54:44.735Z,0.50
2019-05-15T22:57:11.593Z,1.07
2019-05-15T22:59:38.409Z,0.63
2019-05-15T23:02:05.603Z,1.40
2019-05-15T23:04:33.121Z,1.40
2019-05-15T23:07:00.808Z,0.50
2019-05-15T23:09:28.445Z,1.23
2019-05-15T23:11:55.470Z,0.50
2019-05-15T23:14:22.621Z,0.53
2019-05-15T23:16:49.611Z,1.83
2019-05-15T23:19:18.568Z,0.67
2019-05-15T23:21:45.528Z,0.70
2019-05-15T23:24:12.135Z,1.70
2019-05-15T23:26:39.319Z,1.00
2019-05-15T23:29:07.885Z,0.80
2019-05-15T23:31:34.525Z,0.50
2019-05-15T23:34:01.154Z,0.70
2019-05-15T23:36:28.438Z,1.10
2019-05-15T23:38:55.391Z,0.60
2019-05-15T23:41:22.258Z,0.70
2019-05-15T23:43:49.149Z,0.60
2019-05-15T23:46:18.204Z,0.73
2019-05-15T23:48:44.322Z,1.10
2019-05-15T23:51:10.996Z,0.80
2019-05-15T23:53:37.601Z,0.93
2019-05-15T23:56:04.297Z,0.60
2019-05-15T23:58:30.971Z,0.73
